Map

Track Data

SID SEASON NUMBER BASIN SUBBASIN NAME ISO_TIME NATURE LAT LON WMO_WIND WMO_PRES WMO_AGENCY TRACK_TYPE DIST2LAND LANDFALL IFLAG USA_AGENCY USA_ATCF_ID USA_LAT USA_LON USA_RECORD USA_STATUS USA_WIND USA_PRES USA_SSHS USA_R34_NE USA_R34_SE USA_R34_SW USA_R34_NW USA_R50_NE USA_R50_SE USA_R50_SW USA_R50_NW USA_R64_NE USA_R64_SE USA_R64_SW USA_R64_NW USA_POCI USA_ROCI USA_RMW USA_EYE TOKYO_LAT TOKYO_LON TOKYO_GRADE TOKYO_WIND TOKYO_PRES TOKYO_R50_DIR TOKYO_R50_LONG TOKYO_R50_SHORT TOKYO_R30_DIR TOKYO_R30_LONG TOKYO_R30_SHORT TOKYO_LAND CMA_LAT CMA_LON CMA_CAT CMA_WIND CMA_PRES HKO_LAT HKO_LON HKO_CAT HKO_WIND HKO_PRES NEWDELHI_LAT NEWDELHI_LON NEWDELHI_GRADE NEWDELHI_WIND NEWDELHI_PRES NEWDELHI_CI NEWDELHI_DP NEWDELHI_POCI REUNION_LAT REUNION_LON REUNION_TYPE REUNION_WIND REUNION_PRES REUNION_TNUM REUNION_CI REUNION_RMW REUNION_R34_NE REUNION_R34_SE REUNION_R34_SW REUNION_R34_NW REUNION_R50_NE REUNION_R50_SE REUNION_R50_SW REUNION_R50_NW REUNION_R64_NE REUNION_R64_SE REUNION_R64_SW REUNION_R64_NW BOM_LAT BOM_LON BOM_TYPE BOM_WIND BOM_PRES BOM_TNUM BOM_CI BOM_RMW BOM_R34_NE BOM_R34_SE BOM_R34_SW BOM_R34_NW BOM_R50_NE BOM_R50_SE BOM_R50_SW BOM_R50_NW BOM_R64_NE BOM_R64_SE BOM_R64_SW BOM_R64_NW BOM_ROCI BOM_POCI BOM_EYE BOM_POS_METHOD BOM_PRES_METHOD NADI_LAT NADI_LON NADI_CAT NADI_WIND NADI_PRES WELLINGTON_LAT WELLINGTON_LON WELLINGTON_WIND WELLINGTON_PRES DS824_LAT DS824_LON DS824_STAGE DS824_WIND DS824_PRES TD9636_LAT TD9636_LON TD9636_STAGE TD9636_WIND TD9636_PRES TD9635_LAT TD9635_LON TD9635_WIND TD9635_PRES TD9635_ROCI NEUMANN_LAT NEUMANN_LON NEUMANN_CLASS NEUMANN_WIND NEUMANN_PRES MLC_LAT MLC_LON MLC_CLASS MLC_WIND MLC_PRES USA_GUST BOM_GUST BOM_GUST_PER REUNION_GUST REUNION_GUST_PER USA_SEAHGT USA_SEARAD_NE USA_SEARAD_SE USA_SEARAD_SW USA_SEARAD_NW STORM_SPEED STORM_DIR
1981201N26147 1981 51 WP MM NOT_NAMED 1981-07-19 18:00:00 TS 25.5000 147.000 main 1249 1197 __O___________ -1 25.5000 147.000 0 1008 10 350
1981201N26147 1981 51 WP MM NOT_NAMED 1981-07-19 21:00:00 TS 25.9976 146.905 main 1197 1144 __P___________ -1 25.9976 146.905 0 1007 10 350
1981201N26147 1981 51 WP MM NOT_NAMED 1981-07-20 00:00:00 TS 26.5000 146.800 main 1144 1092 __O___________ -1 26.5000 146.800 0 1006 10 348
1981201N26147 1981 51 WP MM NOT_NAMED 1981-07-20 03:00:00 TS 27.0072 146.659 main 1092 1029 __P___________ -1 27.0072 146.659 0 1005 11 340
1981201N26147 1981 51 WP MM NOT_NAMED 1981-07-20 06:00:00 TS 27.5000 146.400 main 1029 971 __O___________ -1 27.5000 146.400 0 19 1004 12 327
1981201N26147 1981 51 WP MM NOT_NAMED 1981-07-20 09:00:00 TS 27.9652 145.945 main 956 891 __P___________ -1 27.9652 145.945 0 21 1004 13 316
1981201N26147 1981 51 WP MM NOT_NAMED 1981-07-20 12:00:00 TS 28.4000 145.400 main 891 827 __O___________ -1 28.4000 145.400 1 23 1004 13 312
1981201N26147 1981 51 WP MM NOT_NAMED 1981-07-20 15:00:00 TS 28.8074 144.892 main 827 763 __P___________ -1 28.8074 144.892 1 23 1004 12 312
1981201N26147 1981 51 WP MM NOT_NAMED 1981-07-20 18:00:00 TS 29.2000 144.400 main 763 705 __O___________ -1 29.2000 144.400 1 23 1004 12 314
1981201N26147 1981 51 WP MM NOT_NAMED 1981-07-20 21:00:00 TS 29.6148 143.942 main 700 642 __P___________ -1 29.6148 143.942 1 26 1003 11 316
1981201N26147 1981 51 WP MM NOT_NAMED 1981-07-21 00:00:00 TS 30.0000 143.500 main 642 589 __O___________ -1 30.0000 143.500 1 29 1002 11 309
1981201N26147 1981 51 WP MM NOT_NAMED 1981-07-21 03:00:00 TS 30.2853 142.990 main 589 541 __P___________ -1 30.2853 142.990 1 29 1002 10 308
1981201N26147 1981 51 WP MM NOT_NAMED 1981-07-21 06:00:00 TS 30.6000 142.600 main 541 497 __O___________ -1 30.6000 142.600 1 29 1002 9 331
1981201N26147 1981 51 WP MM NOT_NAMED 1981-07-21 09:00:00 TS 31.0772 142.475 main 487 439 __P___________ -1 31.0772 142.475 1 29 1002 10 355
1981201N26147 1981 51 WP MM NOT_NAMED 1981-07-21 12:00:00 TS 31.6000 142.500 main 439 403 __O___________ -1 31.6000 142.500 1 29 1002 10 1
1981201N26147 1981 51 WP MM NOT_NAMED 1981-07-21 15:00:00 TS 32.0724 142.498 main 394 362 __P___________ -1 32.0724 142.498 1 29 1002 9 5
1981201N26147 1981 51 WP MM NOT_NAMED 1981-07-21 18:00:00 TS 32.5000 142.600 main 362 344 __O___________ -1 32.5000 142.600 1 29 1002 9 21
1981201N26147 1981 51 WP MM NOT_NAMED 1981-07-21 21:00:00 TS 32.8802 142.870 main 344 333 __P___________ -1 32.8802 142.870 1 29 1001 9 36
1981201N26147 1981 51 WP MM NOT_NAMED 1981-07-22 00:00:00 TS 33.2000 143.200 main 340 333 __O___________ -1 33.2000 143.200 1 29 1000 7 40
1981201N26147 1981 51 WP MM NOT_NAMED 1981-07-22 03:00:00 TS 33.4270 143.414 main 340 333 __P___________ -1 33.4270 143.414 1 29 1000 7 40
1981201N26147 1981 51 WP MM NOT_NAMED 1981-07-22 06:00:00 TS 33.7000 143.700 main 338 338 __O___________ -1 33.7000 143.700 1 29 1000 10 43
1981201N26147 1981 51 WP MM NOT_NAMED 1981-07-22 09:00:00 TS 34.1177 144.198 main 349 349 __P___________ -1 34.1177 144.198 1 29 1000 14 42
1981201N26147 1981 51 WP MM NOT_NAMED 1981-07-22 12:00:00 TS 34.7000 144.800 main 370 370 __O___________ -1 34.7000 144.800 1 29 1000 17 37
1981201N26147 1981 51 WP MM NOT_NAMED 1981-07-22 15:00:00 TS 35.4529 145.402 main 406 406 __P___________ -1 35.4529 145.402 1 29 1000 19 31
1981201N26147 1981 51 WP MM NOT_NAMED 1981-07-22 18:00:00 TS 36.3000 146.000 main 451 __O___________ -1 36.3000 146.000 1 29 1000 20 30

Digital Typhoon Data and Search

About IBTrACS Database

This database is a web-friendly format of International Best Track Archive for Climate Stewardship (IBTrACS), a global best track data archive curated by NOAA dating back to 1842.

Updated: 2021-10-08